sensor_id;sensor_type;location;lat;lon;timestamp;pressure;altitude;pressure_sealevel;temperature
8533;BMP280;4304;53.876;10.662;2023-09-19T00:01:06;100166.16;;;16.91
8533;BMP280;4304;53.876;10.662;2023-09-19T00:03:32;100175.50;;;16.93
8533;BMP280;4304;53.876;10.662;2023-09-19T00:05:58;100170.59;;;16.90
8533;BMP280;4304;53.876;10.662;2023-09-19T00:08:23;100168.63;;;16.92
8533;BMP280;4304;53.876;10.662;2023-09-19T00:10:49;100168.13;;;16.89
8533;BMP280;4304;53.876;10.662;2023-09-19T00:13:14;100177.75;;;16.88
8533;BMP280;4304;53.876;10.662;2023-09-19T00:15:41;100174.31;;;16.88
8533;BMP280;4304;53.876;10.662;2023-09-19T00:18:08;100172.50;;;16.88
8533;BMP280;4304;53.876;10.662;2023-09-19T00:20:37;100174.31;;;16.88
8533;BMP280;4304;53.876;10.662;2023-09-19T00:23:03;100173.00;;;16.84
8533;BMP280;4304;53.876;10.662;2023-09-19T00:25:34;100177.91;;;16.87
8533;BMP280;4304;53.876;10.662;2023-09-19T00:28:00;100173.31;;;16.81
8533;BMP280;4304;53.876;10.662;2023-09-19T00:30:26;100176.91;;;16.80
8533;BMP280;4304;53.876;10.662;2023-09-19T00:32:52;100167.06;;;16.82
8533;BMP280;4304;53.876;10.662;2023-09-19T00:35:18;100176.25;;;16.78
8533;BMP280;4304;53.876;10.662;2023-09-19T00:37:49;100171.16;;;16.76
8533;BMP280;4304;53.876;10.662;2023-09-19T00:40:14;100160.09;;;16.65
8533;BMP280;4304;53.876;10.662;2023-09-19T00:42:47;100174.72;;;16.67
8533;BMP280;4304;53.876;10.662;2023-09-19T00:45:14;100190.09;;;16.63
8533;BMP280;4304;53.876;10.662;2023-09-19T00:47:42;100182.69;;;16.58
8533;BMP280;4304;53.876;10.662;2023-09-19T00:50:09;100185.81;;;16.62
8533;BMP280;4304;53.876;10.662;2023-09-19T00:52:36;100180.34;;;16.55
8533;BMP280;4304;53.876;10.662;2023-09-19T00:55:05;100198.41;;;16.58
8533;BMP280;4304;53.876;10.662;2023-09-19T00:57:31;100186.25;;;16.57
8533;BMP280;4304;53.876;10.662;2023-09-19T00:59:58;100193.16;;;16.58
8533;BMP280;4304;53.876;10.662;2023-09-19T01:02:24;100185.00;;;16.61
8533;BMP280;4304;53.876;10.662;2023-09-19T01:04:52;100185.44;;;16.57
8533;BMP280;4304;53.876;10.662;2023-09-19T01:07:18;100189.88;;;16.56
8533;BMP280;4304;53.876;10.662;2023-09-19T01:09:44;100195.78;;;16.58
8533;BMP280;4304;53.876;10.662;2023-09-19T01:12:12;100185.38;;;16.49
8533;BMP280;4304;53.876;10.662;2023-09-19T01:14:53;100186.19;;;16.49
8533;BMP280;4304;53.876;10.662;2023-09-19T01:17:30;100182.63;;;16.50
8533;BMP280;4304;53.876;10.662;2023-09-19T01:20:15;100187.44;;;16.37
8533;BMP280;4304;53.876;10.662;2023-09-19T01:31:28;100202.06;;;16.40
8533;BMP280;4304;53.876;10.662;2023-09-19T01:34:01;100200.25;;;16.40
8533;BMP280;4304;53.876;10.662;2023-09-19T01:36:33;100203.38;;;16.44
8533;BMP280;4304;53.876;10.662;2023-09-19T01:39:10;100186.63;;;16.37
8533;BMP280;4304;53.876;10.662;2023-09-19T01:44:09;100199.88;;;16.35
8533;BMP280;4304;53.876;10.662;2023-09-19T01:46:40;100194.63;;;16.35
8533;BMP280;4304;53.876;10.662;2023-09-19T01:49:18;100201.22;;;16.39
8533;BMP280;4304;53.876;10.662;2023-09-19T01:54:23;100198.69;;;16.30
8533;BMP280;4304;53.876;10.662;2023-09-19T01:56:56;100203.94;;;16.30
8533;BMP280;4304;53.876;10.662;2023-09-19T01:59:27;100197.03;;;16.29
8533;BMP280;4304;53.876;10.662;2023-09-19T02:01:54;100191.94;;;16.27
8533;BMP280;4304;53.876;10.662;2023-09-19T02:04:20;100190.97;;;16.28
8533;BMP280;4304;53.876;10.662;2023-09-19T02:06:45;100200.94;;;16.25
8533;BMP280;4304;53.876;10.662;2023-09-19T02:09:13;100208.72;;;16.17
8533;BMP280;4304;53.876;10.662;2023-09-19T02:11:39;100201.94;;;16.15
8533;BMP280;4304;53.876;10.662;2023-09-19T02:14:06;100209.97;;;16.13
8533;BMP280;4304;53.876;10.662;2023-09-19T02:16:34;100209.97;;;16.13
8533;BMP280;4304;53.876;10.662;2023-09-19T02:18:59;100212.44;;;16.15
8533;BMP280;4304;53.876;10.662;2023-09-19T02:21:25;100213.94;;;16.17
8533;BMP280;4304;53.876;10.662;2023-09-19T02:23:51;100221.81;;;16.17
8533;BMP280;4304;53.876;10.662;2023-09-19T02:26:16;100222.41;;;16.11
8533;BMP280;4304;53.876;10.662;2023-09-19T02:28:43;100235.72;;;16.18
8533;BMP280;4304;53.876;10.662;2023-09-19T02:31:11;100238.28;;;16.10
8533;BMP280;4304;53.876;10.662;2023-09-19T02:33:36;100233.66;;;16.04
8533;BMP280;4304;53.876;10.662;2023-09-19T02:36:02;100232.66;;;16.05
8533;BMP280;4304;53.876;10.662;2023-09-19T02:38:29;100252.94;;;16.03
8533;BMP280;4304;53.876;10.662;2023-09-19T02:40:55;100255.78;;;15.92
8533;BMP280;4304;53.876;10.662;2023-09-19T02:43:21;100258.72;;;15.89
8533;BMP280;4304;53.876;10.662;2023-09-19T02:45:47;100245.91;;;15.86
8533;BMP280;4304;53.876;10.662;2023-09-19T02:48:15;100256.97;;;15.80
8533;BMP280;4304;53.876;10.662;2023-09-19T02:50:41;100252.41;;;15.82
8533;BMP280;4304;53.876;10.662;2023-09-19T02:53:07;100263.88;;;15.81
8533;BMP280;4304;53.876;10.662;2023-09-19T02:55:32;100259.59;;;15.80
8533;BMP280;4304;53.876;10.662;2023-09-19T02:57:59;100265.28;;;15.76
8533;BMP280;4304;53.876;10.662;2023-09-19T03:00:25;100267.50;;;15.71
8533;BMP280;4304;53.876;10.662;2023-09-19T03:02:55;100258.78;;;15.80
8533;BMP280;4304;53.876;10.662;2023-09-19T03:05:22;100271.47;;;15.75
8533;BMP280;4304;53.876;10.662;2023-09-19T03:07:49;100275.31;;;15.80
8533;BMP280;4304;53.876;10.662;2023-09-19T03:10:16;100265.56;;;15.73
8533;BMP280;4304;53.876;10.662;2023-09-19T03:12:41;100275.75;;;15.76
8533;BMP280;4304;53.876;10.662;2023-09-19T03:15:07;100280.66;;;15.61
8533;BMP280;4304;53.876;10.662;2023-09-19T03:17:34;100280.13;;;15.58
8533;BMP280;4304;53.876;10.662;2023-09-19T03:19:59;100283.19;;;15.53
8533;BMP280;4304;53.876;10.662;2023-09-19T03:22:26;100266.78;;;15.51
8533;BMP280;4304;53.876;10.662;2023-09-19T03:24:52;100277.53;;;15.48
8533;BMP280;4304;53.876;10.662;2023-09-19T03:27:18;100283.06;;;15.45
8533;BMP280;4304;53.876;10.662;2023-09-19T03:29:43;100282.13;;;15.46
8533;BMP280;4304;53.876;10.662;2023-09-19T03:32:09;100279.78;;;15.43
8533;BMP280;4304;53.876;10.662;2023-09-19T03:34:38;100280.59;;;15.44
8533;BMP280;4304;53.876;10.662;2023-09-19T03:37:11;100273.72;;;15.43
8533;BMP280;4304;53.876;10.662;2023-09-19T03:39:36;100274.69;;;15.42
8533;BMP280;4304;53.876;10.662;2023-09-19T03:42:02;100272.72;;;15.44
8533;BMP280;4304;53.876;10.662;2023-09-19T03:44:29;100274.53;;;15.43
8533;BMP280;4304;53.876;10.662;2023-09-19T03:46:54;100275.34;;;15.44
8533;BMP280;4304;53.876;10.662;2023-09-19T03:49:21;100286.34;;;15.47
8533;BMP280;4304;53.876;10.662;2023-09-19T03:51:47;100276.00;;;15.55
8533;BMP280;4304;53.876;10.662;2023-09-19T03:54:12;100292.09;;;15.60
8533;BMP280;4304;53.876;10.662;2023-09-19T03:56:37;100288.66;;;15.60
8533;BMP280;4304;53.876;10.662;2023-09-19T03:59:03;100283.00;;;15.64
8533;BMP280;4304;53.876;10.662;2023-09-19T04:01:28;100289.88;;;15.65
8533;BMP280;4304;53.876;10.662;2023-09-19T04:03:57;100291.25;;;15.69
8533;BMP280;4304;53.876;10.662;2023-09-19T04:06:23;100294.38;;;15.73
8533;BMP280;4304;53.876;10.662;2023-09-19T04:08:48;100298.91;;;15.71
8533;BMP280;4304;53.876;10.662;2023-09-19T04:11:14;100309.97;;;15.74
8533;BMP280;4304;53.876;10.662;2023-09-19T04:13:39;100311.06;;;15.72
8533;BMP280;4304;53.876;10.662;2023-09-19T04:16:05;100324.44;;;15.69
8533;BMP280;4304;53.876;10.662;2023-09-19T04:18:32;100313.81;;;15.70
8533;BMP280;4304;53.876;10.662;2023-09-19T04:20:58;100324.19;;;15.62
8533;BMP280;4304;53.876;10.662;2023-09-19T04:23:27;100324.19;;;15.62
8533;BMP280;4304;53.876;10.662;2023-09-19T04:25:53;100328.09;;;15.58
8533;BMP280;4304;53.876;10.662;2023-09-19T04:28:18;100329.34;;;15.54
8533;BMP280;4304;53.876;10.662;2023-09-19T04:30:44;100329.88;;;15.58
8533;BMP280;4304;53.876;10.662;2023-09-19T04:33:09;100323.56;;;15.51
8533;BMP280;4304;53.876;10.662;2023-09-19T04:35:34;100339.19;;;15.43
8533;BMP280;4304;53.876;10.662;2023-09-19T04:38:00;100333.94;;;15.43
8533;BMP280;4304;53.876;10.662;2023-09-19T04:40:26;100338.06;;;15.36
8533;BMP280;4304;53.876;10.662;2023-09-19T04:42:55;100341.97;;;15.32
8533;BMP280;4304;53.876;10.662;2023-09-19T04:45:27;100351.06;;;15.28
8533;BMP280;4304;53.876;10.662;2023-09-19T04:47:53;100349.13;;;15.30
8533;BMP280;4304;53.876;10.662;2023-09-19T04:50:20;100352.84;;;15.28
8533;BMP280;4304;53.876;10.662;2023-09-19T04:52:51;100375.19;;;15.22
8533;BMP280;4304;53.876;10.662;2023-09-19T04:55:18;100363.47;;;15.26
8533;BMP280;4304;53.876;10.662;2023-09-19T04:57:48;100372.84;;;15.19
8533;BMP280;4304;53.876;10.662;2023-09-19T05:00:15;100377.78;;;15.13
8533;BMP280;4304;53.876;10.662;2023-09-19T05:02:42;100375.75;;;15.07
8533;BMP280;4304;53.876;10.662;2023-09-19T05:05:08;100376.56;;;15.07
8533;BMP280;4304;53.876;10.662;2023-09-19T05:07:35;100384.28;;;15.09
8533;BMP280;4304;53.876;10.662;2023-09-19T05:10:01;100392.81;;;15.20
8533;BMP280;4304;53.876;10.662;2023-09-19T05:12:26;100389.78;;;15.25
8533;BMP280;4304;53.876;10.662;2023-09-19T05:14:52;100395.19;;;15.23
8533;BMP280;4304;53.876;10.662;2023-09-19T05:17:18;100394.91;;;15.17
8533;BMP280;4304;53.876;10.662;2023-09-19T05:19:43;100404.78;;;15.23
8533;BMP280;4304;53.876;10.662;2023-09-19T05:22:08;100405.38;;;15.17
8533;BMP280;4304;53.876;10.662;2023-09-19T05:24:34;100410.00;;;15.13
8533;BMP280;4304;53.876;10.662;2023-09-19T05:26:59;100421.06;;;15.17
8533;BMP280;4304;53.876;10.662;2023-09-19T05:29:25;100412.22;;;15.08
8533;BMP280;4304;53.876;10.662;2023-09-19T05:31:50;100428.34;;;15.04
8533;BMP280;4304;53.876;10.662;2023-09-19T05:34:16;100410.84;;;15.04
8533;BMP280;4304;53.876;10.662;2023-09-19T05:36:41;100426.69;;;15.03
8533;BMP280;4304;53.876;10.662;2023-09-19T05:39:07;100424.63;;;14.97
8533;BMP280;4304;53.876;10.662;2023-09-19T05:41:35;100434.53;;;15.03
8533;BMP280;4304;53.876;10.662;2023-09-19T05:44:04;100427.38;;;15.05
8533;BMP280;4304;53.876;10.662;2023-09-19T05:46:32;100432.47;;;15.06
8533;BMP280;4304;53.876;10.662;2023-09-19T05:48:57;100427.69;;;15.21
8533;BMP280;4304;53.876;10.662;2023-09-19T05:51:23;100427.00;;;15.28
8533;BMP280;4304;53.876;10.662;2023-09-19T05:53:48;100428.34;;;15.32
8533;BMP280;4304;53.876;10.662;2023-09-19T05:56:15;100434.00;;;15.28
8533;BMP280;4304;53.876;10.662;2023-09-19T05:58:40;100446.41;;;15.26
8533;BMP280;4304;53.876;10.662;2023-09-19T06:01:09;100440.63;;;15.22
8533;BMP280;4304;53.876;10.662;2023-09-19T06:03:35;100436.75;;;15.26
8533;BMP280;4304;53.876;10.662;2023-09-19T06:06:01;100450.63;;;15.55
8533;BMP280;4304;53.876;10.662;2023-09-19T06:08:27;100442.03;;;15.81
8533;BMP280;4304;53.876;10.662;2023-09-19T06:10:53;100444.25;;;15.76
8533;BMP280;4304;53.876;10.662;2023-09-19T06:13:19;100444.94;;;16.05
8533;BMP280;4304;53.876;10.662;2023-09-19T06:15:45;100435.09;;;16.16
8533;BMP280;4304;53.876;10.662;2023-09-19T06:18:11;100450.16;;;16.50
8533;BMP280;4304;53.876;10.662;2023-09-19T06:20:42;100450.97;;;16.51
8533;BMP280;4304;53.876;10.662;2023-09-19T06:23:09;100470.41;;;16.75
8533;BMP280;4304;53.876;10.662;2023-09-19T06:25:35;100453.72;;;16.93
8533;BMP280;4304;53.876;10.662;2023-09-19T06:28:00;100460.63;;;16.94
8533;BMP280;4304;53.876;10.662;2023-09-19T06:30:29;100469.97;;;16.97
8533;BMP280;4304;53.876;10.662;2023-09-19T06:32:59;100458.97;;;17.10
8533;BMP280;4304;53.876;10.662;2023-09-19T06:35:24;100460.47;;;17.13
8533;BMP280;4304;53.876;10.662;2023-09-19T06:37:54;100461.81;;;17.00
8533;BMP280;4304;53.876;10.662;2023-09-19T06:40:22;100470.88;;;16.88
8533;BMP280;4304;53.876;10.662;2023-09-19T06:42:50;100462.25;;;16.78
8533;BMP280;4304;53.876;10.662;2023-09-19T06:45:16;100473.81;;;16.85
8533;BMP280;4304;53.876;10.662;2023-09-19T06:47:48;100482.72;;;16.92
8533;BMP280;4304;53.876;10.662;2023-09-19T06:50:17;100463.75;;;16.80
8533;BMP280;4304;53.876;10.662;2023-09-19T06:52:48;100477.56;;;16.56
8533;BMP280;4304;53.876;10.662;2023-09-19T06:55:15;100479.00;;;16.50
8533;BMP280;4304;53.876;10.662;2023-09-19T06:57:42;100485.00;;;16.43
8533;BMP280;4304;53.876;10.662;2023-09-19T07:00:08;100477.97;;;16.34
8533;BMP280;4304;53.876;10.662;2023-09-19T07:02:39;100481.38;;;16.44
8533;BMP280;4304;53.876;10.662;2023-09-19T07:05:06;100483.56;;;16.48
8533;BMP280;4304;53.876;10.662;2023-09-19T07:07:32;100479.72;;;16.69
8533;BMP280;4304;53.876;10.662;2023-09-19T07:10:00;100486.09;;;17.02
8533;BMP280;4304;53.876;10.662;2023-09-19T07:12:26;100486.34;;;17.08
8533;BMP280;4304;53.876;10.662;2023-09-19T07:14:51;100493.31;;;17.00
8533;BMP280;4304;53.876;10.662;2023-09-19T07:17:16;100485.88;;;16.78
8533;BMP280;4304;53.876;10.662;2023-09-19T07:19:44;100500.34;;;16.82
8533;BMP280;4304;53.876;10.662;2023-09-19T07:22:09;100487.16;;;16.74
8533;BMP280;4304;53.876;10.662;2023-09-19T07:24:35;100490.00;;;16.80
8533;BMP280;4304;53.876;10.662;2023-09-19T07:27:02;100505.97;;;16.69
8533;BMP280;4304;53.876;10.662;2023-09-19T07:29:28;100498.50;;;16.65
8533;BMP280;4304;53.876;10.662;2023-09-19T07:31:53;100509.00;;;16.65
8533;BMP280;4304;53.876;10.662;2023-09-19T07:34:19;100507.75;;;16.69
8533;BMP280;4304;53.876;10.662;2023-09-19T07:36:47;100513.44;;;16.65
8533;BMP280;4304;53.876;10.662;2023-09-19T07:39:12;100505.75;;;16.54
8533;BMP280;4304;53.876;10.662;2023-09-19T07:41:38;100507.03;;;16.50
8533;BMP280;4304;53.876;10.662;2023-09-19T07:44:03;100514.88;;;16.59
8533;BMP280;4304;53.876;10.662;2023-09-19T07:46:29;100524.94;;;16.81
8533;BMP280;4304;53.876;10.662;2023-09-19T07:48:56;100512.97;;;16.96
8533;BMP280;4304;53.876;10.662;2023-09-19T07:51:22;100512.00;;;17.14
8533;BMP280;4304;53.876;10.662;2023-09-19T07:53:47;100517.13;;;17.67
8533;BMP280;4304;53.876;10.662;2023-09-19T07:56:13;100516.63;;;17.89
8533;BMP280;4304;53.876;10.662;2023-09-19T07:58:40;100521.66;;;18.08
8533;BMP280;4304;53.876;10.662;2023-09-19T08:01:09;100525.88;;;18.01
8533;BMP280;4304;53.876;10.662;2023-09-19T08:03:36;100512.97;;;17.65
8533;BMP280;4304;53.876;10.662;2023-09-19T08:06:05;100505.81;;;17.50
8533;BMP280;4304;53.876;10.662;2023-09-19T08:08:32;100531.00;;;17.43
8533;BMP280;4304;53.876;10.662;2023-09-19T08:10:57;100526.81;;;17.32
8533;BMP280;4304;53.876;10.662;2023-09-19T08:13:24;100525.66;;;17.17
8533;BMP280;4304;53.876;10.662;2023-09-19T08:15:49;100516.94;;;17.26
8533;BMP280;4304;53.876;10.662;2023-09-19T08:18:16;100522.19;;;17.26
8533;BMP280;4304;53.876;10.662;2023-09-19T08:20:42;100526.31;;;17.46
8533;BMP280;4304;53.876;10.662;2023-09-19T08:23:08;100525.47;;;17.28
8533;BMP280;4304;53.876;10.662;2023-09-19T08:25:34;100525.81;;;17.16
8533;BMP280;4304;53.876;10.662;2023-09-19T08:27:59;100526.63;;;16.99
8533;BMP280;4304;53.876;10.662;2023-09-19T08:30:27;100528.19;;;17.09
8533;BMP280;4304;53.876;10.662;2023-09-19T08:32:58;100522.94;;;17.09
8533;BMP280;4304;53.876;10.662;2023-09-19T08:35:24;100522.63;;;17.22
8533;BMP280;4304;53.876;10.662;2023-09-19T08:37:49;100529.00;;;17.37
8533;BMP280;4304;53.876;10.662;2023-09-19T08:40:16;100513.53;;;17.34
8533;BMP280;4304;53.876;10.662;2023-09-19T08:42:51;100521.13;;;17.37
8533;BMP280;4304;53.876;10.662;2023-09-19T08:45:17;100522.00;;;17.45
8533;BMP280;4304;53.876;10.662;2023-09-19T08:47:47;100525.31;;;17.47
8533;BMP280;4304;53.876;10.662;2023-09-19T08:50:27;100526.91;;;17.40
8533;BMP280;4304;53.876;10.662;2023-09-19T08:53:01;100526.81;;;17.50
8533;BMP280;4304;53.876;10.662;2023-09-19T08:55:28;100536.47;;;17.49
8533;BMP280;4304;53.876;10.662;2023-09-19T08:58:02;100539.59;;;17.45
8533;BMP280;4304;53.876;10.662;2023-09-19T09:00:28;100529.75;;;17.47
8533;BMP280;4304;53.876;10.662;2023-09-19T09:02:58;100534.25;;;17.37
8533;BMP280;4304;53.876;10.662;2023-09-19T09:05:24;100537.63;;;17.47
8533;BMP280;4304;53.876;10.662;2023-09-19T09:07:50;100546.03;;;17.50
8533;BMP280;4304;53.876;10.662;2023-09-19T09:10:18;100535.28;;;17.44
8533;BMP280;4304;53.876;10.662;2023-09-19T09:12:47;100530.78;;;17.19
8533;BMP280;4304;53.876;10.662;2023-09-19T09:15:12;100550.31;;;17.34
8533;BMP280;4304;53.876;10.662;2023-09-19T09:17:41;100551.91;;;17.17
8533;BMP280;4304;53.876;10.662;2023-09-19T09:20:08;100541.16;;;17.20
8533;BMP280;4304;53.876;10.662;2023-09-19T09:22:35;100552.22;;;17.14
8533;BMP280;4304;53.876;10.662;2023-09-19T09:25:01;100554.38;;;17.02
8533;BMP280;4304;53.876;10.662;2023-09-19T09:27:29;100556.78;;;17.12
8533;BMP280;4304;53.876;10.662;2023-09-19T09:29:55;100564.13;;;17.18
8533;BMP280;4304;53.876;10.662;2023-09-19T09:34:48;100549.50;;;17.33
8533;BMP280;4304;53.876;10.662;2023-09-19T09:37:14;100560.75;;;17.43
8533;BMP280;4304;53.876;10.662;2023-09-19T09:39:49;100559.72;;;17.36
8533;BMP280;4304;53.876;10.662;2023-09-19T09:45:17;100564.41;;;17.50
8533;BMP280;4304;53.876;10.662;2023-09-19T09:47:46;100564.94;;;17.53
8533;BMP280;4304;53.876;10.662;2023-09-19T09:50:47;100571.13;;;17.45
8533;BMP280;4304;53.876;10.662;2023-09-19T09:53:28;100572.00;;;17.53
8533;BMP280;4304;53.876;10.662;2023-09-19T09:56:06;100564.72;;;17.47
8533;BMP280;4304;53.876;10.662;2023-09-19T09:58:36;100566.91;;;17.52
8533;BMP280;4304;53.876;10.662;2023-09-19T10:01:02;100573.88;;;17.78
8533;BMP280;4304;53.876;10.662;2023-09-19T10:03:35;100565.84;;;18.04
8533;BMP280;4304;53.876;10.662;2023-09-19T10:06:10;100580.91;;;18.12
8533;BMP280;4304;53.876;10.662;2023-09-19T10:09:20;100571.25;;;18.20
8533;BMP280;4304;53.876;10.662;2023-09-19T10:12:01;100571.84;;;18.14
8533;BMP280;4304;53.876;10.662;2023-09-19T10:14:30;100586.50;;;18.42
8533;BMP280;4304;53.876;10.662;2023-09-19T10:16:58;100589.50;;;18.47
8533;BMP280;4304;53.876;10.662;2023-09-19T10:19:42;100576.03;;;18.50
8533;BMP280;4304;53.876;10.662;2023-09-19T10:22:12;100612.47;;;18.70
8533;BMP280;4304;53.876;10.662;2023-09-19T10:24:40;100608.97;;;18.62
8533;BMP280;4304;53.876;10.662;2023-09-19T10:27:06;100588.78;;;18.37
8533;BMP280;4304;53.876;10.662;2023-09-19T10:29:39;100606.78;;;18.49
8533;BMP280;4304;53.876;10.662;2023-09-19T10:32:06;100607.00;;;18.64
8533;BMP280;4304;53.876;10.662;2023-09-19T10:34:35;100589.84;;;18.85
8533;BMP280;4304;53.876;10.662;2023-09-19T10:37:02;100588.63;;;19.05
8533;BMP280;4304;53.876;10.662;2023-09-19T10:39:31;100588.28;;;19.00
8533;BMP280;4304;53.876;10.662;2023-09-19T10:42:02;100601.91;;;18.95
8533;BMP280;4304;53.876;10.662;2023-09-19T10:44:32;100608.91;;;19.12
8533;BMP280;4304;53.876;10.662;2023-09-19T10:46:57;100622.78;;;19.30
8533;BMP280;4304;53.876;10.662;2023-09-19T10:49:24;100596.41;;;19.22
8533;BMP280;4304;53.876;10.662;2023-09-19T10:51:54;100606.28;;;19.20
8533;BMP280;4304;53.876;10.662;2023-09-19T10:54:22;100603.22;;;19.48
8533;BMP280;4304;53.876;10.662;2023-09-19T10:56:52;100589.56;;;19.76
8533;BMP280;4304;53.876;10.662;2023-09-19T10:59:20;100601.28;;;19.66
8533;BMP280;4304;53.876;10.662;2023-09-19T11:07:01;100626.88;;;19.89
8533;BMP280;4304;53.876;10.662;2023-09-19T11:09:48;100624.25;;;20.05
8533;BMP280;4304;53.876;10.662;2023-09-19T11:14:54;100626.34;;;20.25
8533;BMP280;4304;53.876;10.662;2023-09-19T11:30:48;100594.31;;;19.33
8533;BMP280;4304;53.876;10.662;2023-09-19T11:49:17;100584.47;;;19.51
8533;BMP280;4304;53.876;10.662;2023-09-19T11:51:46;100579.03;;;19.61
8533;BMP280;4304;53.876;10.662;2023-09-19T11:54:14;100576.06;;;19.64
8533;BMP280;4304;53.876;10.662;2023-09-19T11:56:43;100590.88;;;19.49
8533;BMP280;4304;53.876;10.662;2023-09-19T11:59:09;100573.72;;;19.37
8533;BMP280;4304;53.876;10.662;2023-09-19T12:01:37;100568.47;;;19.45
8533;BMP280;4304;53.876;10.662;2023-09-19T12:04:08;100576.72;;;19.50
8533;BMP280;4304;53.876;10.662;2023-09-19T12:06:35;100569.09;;;19.39
8533;BMP280;4304;53.876;10.662;2023-09-19T12:09:13;100570.72;;;19.16
8533;BMP280;4304;53.876;10.662;2023-09-19T12:11:42;100559.16;;;19.09
8533;BMP280;4304;53.876;10.662;2023-09-19T12:14:09;100570.00;;;18.98
8533;BMP280;4304;53.876;10.662;2023-09-19T12:16:34;100573.41;;;18.91
8533;BMP280;4304;53.876;10.662;2023-09-19T12:19:22;100562.66;;;19.18
8533;BMP280;4304;53.876;10.662;2023-09-19T12:22:01;100561.72;;;19.34
8533;BMP280;4304;53.876;10.662;2023-09-19T12:24:30;100581.97;;;19.50
8533;BMP280;4304;53.876;10.662;2023-09-19T12:27:06;100573.91;;;19.67
8533;BMP280;4304;53.876;10.662;2023-09-19T12:29:48;100575.88;;;19.65
8533;BMP280;4304;53.876;10.662;2023-09-19T12:32:34;100559.59;;;19.69
8533;BMP280;4304;53.876;10.662;2023-09-19T12:35:00;100569.13;;;19.55
8533;BMP280;4304;53.876;10.662;2023-09-19T12:37:28;100565.19;;;19.59
8533;BMP280;4304;53.876;10.662;2023-09-19T12:40:07;100566.50;;;19.63
8533;BMP280;4304;53.876;10.662;2023-09-19T12:42:48;100568.94;;;19.40
8533;BMP280;4304;53.876;10.662;2023-09-19T12:45:14;100583.94;;;19.40
8533;BMP280;4304;53.876;10.662;2023-09-19T12:51:10;100587.91;;;19.52
8533;BMP280;4304;53.876;10.662;2023-09-19T12:56:07;100586.59;;;19.71
8533;BMP280;4304;53.876;10.662;2023-09-19T12:58:51;100578.91;;;19.86
8533;BMP280;4304;53.876;10.662;2023-09-19T13:01:16;100583.00;;;19.80
8533;BMP280;4304;53.876;10.662;2023-09-19T13:03:42;100588.13;;;19.98
8533;BMP280;4304;53.876;10.662;2023-09-19T13:06:08;100599.34;;;19.92
8533;BMP280;4304;53.876;10.662;2023-09-19T13:08:37;100571.63;;;19.96
8533;BMP280;4304;53.876;10.662;2023-09-19T13:11:21;100578.22;;;20.00
8533;BMP280;4304;53.876;10.662;2023-09-19T13:17:01;100601.63;;;20.11
8533;BMP280;4304;53.876;10.662;2023-09-19T13:22:00;100559.94;;;19.90
8533;BMP280;4304;53.876;10.662;2023-09-19T13:24:26;100566.19;;;19.97
8533;BMP280;4304;53.876;10.662;2023-09-19T13:26:52;100557.63;;;19.87
8533;BMP280;4304;53.876;10.662;2023-09-19T13:29:17;100566.19;;;19.97
8533;BMP280;4304;53.876;10.662;2023-09-19T13:31:50;100568.00;;;19.81
8533;BMP280;4304;53.876;10.662;2023-09-19T13:34:18;100570.97;;;19.78
8533;BMP280;4304;53.876;10.662;2023-09-19T13:36:44;100555.63;;;19.73
8533;BMP280;4304;53.876;10.662;2023-09-19T13:39:09;100560.25;;;19.71
8533;BMP280;4304;53.876;10.662;2023-09-19T13:41:35;100553.34;;;19.70
8533;BMP280;4304;53.876;10.662;2023-09-19T13:44:02;100555.66;;;19.66
8533;BMP280;4304;53.876;10.662;2023-09-19T13:46:28;100522.50;;;19.71
8533;BMP280;4304;53.876;10.662;2023-09-19T13:48:53;100507.50;;;19.71
8533;BMP280;4304;53.876;10.662;2023-09-19T13:51:25;100513.44;;;19.73
8533;BMP280;4304;53.876;10.662;2023-09-19T13:53:51;100531.72;;;19.75
8533;BMP280;4304;53.876;10.662;2023-09-19T13:56:16;100511.97;;;19.71
8533;BMP280;4304;53.876;10.662;2023-09-19T13:58:42;100523.66;;;19.68
8533;BMP280;4304;53.876;10.662;2023-09-19T14:01:07;100531.91;;;19.66
8533;BMP280;4304;53.876;10.662;2023-09-19T14:03:41;100518.91;;;19.64
8533;BMP280;4304;53.876;10.662;2023-09-19T14:06:11;100509.16;;;19.57
8533;BMP280;4304;53.876;10.662;2023-09-19T14:08:37;100511.97;;;19.71
8533;BMP280;4304;53.876;10.662;2023-09-19T14:11:07;100525.63;;;19.67
8533;BMP280;4304;53.876;10.662;2023-09-19T14:13:32;100520.53;;;19.57
8533;BMP280;4304;53.876;10.662;2023-09-19T14:16:05;100529.91;;;19.52
8533;BMP280;4304;53.876;10.662;2023-09-19T14:18:31;100517.75;;;19.51
8533;BMP280;4304;53.876;10.662;2023-09-19T14:20:57;100510.66;;;19.59
8533;BMP280;4304;53.876;10.662;2023-09-19T14:23:22;100489.22;;;19.62
8533;BMP280;4304;53.876;10.662;2023-09-19T14:25:48;100497.44;;;19.75
8533;BMP280;4304;53.876;10.662;2023-09-19T14:28:14;100484.75;;;19.78
8533;BMP280;4304;53.876;10.662;2023-09-19T14:30:39;100498.63;;;19.80
8533;BMP280;4304;53.876;10.662;2023-09-19T14:33:04;100489.69;;;19.81
8533;BMP280;4304;53.876;10.662;2023-09-19T14:35:31;100497.28;;;19.68
8533;BMP280;4304;53.876;10.662;2023-09-19T14:37:56;100490.88;;;19.63
8533;BMP280;4304;53.876;10.662;2023-09-19T14:40:21;100484.44;;;19.73
8533;BMP280;4304;53.876;10.662;2023-09-19T14:42:47;100492.34;;;19.81
8533;BMP280;4304;53.876;10.662;2023-09-19T14:45:13;100465.66;;;19.76
8533;BMP280;4304;53.876;10.662;2023-09-19T14:47:43;100488.25;;;19.63
8533;BMP280;4304;53.876;10.662;2023-09-19T14:50:09;100473.41;;;19.62
8533;BMP280;4304;53.876;10.662;2023-09-19T14:52:34;100460.56;;;19.59
8533;BMP280;4304;53.876;10.662;2023-09-19T14:55:01;100480.00;;;19.66
8533;BMP280;4304;53.876;10.662;2023-09-19T14:57:27;100472.75;;;19.52
8533;BMP280;4304;53.876;10.662;2023-09-19T14:59:53;100472.94;;;19.51
8533;BMP280;4304;53.876;10.662;2023-09-19T15:02:18;100476.22;;;19.45
8533;BMP280;4304;53.876;10.662;2023-09-19T15:04:44;100477.72;;;19.39
8533;BMP280;4304;53.876;10.662;2023-09-19T15:07:11;100470.94;;;19.37
8533;BMP280;4304;53.876;10.662;2023-09-19T15:09:37;100473.25;;;19.32
8533;BMP280;4304;53.876;10.662;2023-09-19T15:12:03;100469.81;;;19.39
8533;BMP280;4304;53.876;10.662;2023-09-19T15:14:28;100459.94;;;19.33
8533;BMP280;4304;53.876;10.662;2023-09-19T15:16:55;100472.44;;;19.24
8533;BMP280;4304;53.876;10.662;2023-09-19T15:19:20;100452.84;;;19.34
8533;BMP280;4304;53.876;10.662;2023-09-19T15:21:48;100459.75;;;19.35